Time;durP1;ratioP1;P1;durP2;ratioP2;P2;SDS_P1;SDS_P2;PMS_P1;PMS_P2;Temp;Humidity;BMP_temperature;BMP_pressure;BME280_temperature;BME280_humidity;BME280_pressure;Samples;Min_cycle;Max_cycle;Signal;HPM_P1;HPM_P2
2023/01/17 00:00:07;;;;;;;2.20;2.00;;;4.60;99.90;;;;;;4962165;28;20211;-70
2023/01/17 00:02:35;;;;;;;2.00;1.83;;;4.70;99.90;;;;;;4969292;28;20205;-69
2023/01/17 00:10:31;;;;;;;5.47;2.60;;;4.70;99.90;;;;;;4983458;28;20221;-70
2023/01/17 00:13:00;;;;;;;2.70;2.40;;;4.70;99.90;;;;;;4974491;28;20199;-70
2023/01/17 00:15:30;;;;;;;3.27;2.97;;;4.70;99.90;;;;;;4953654;28;20211;-70
2023/01/17 00:17:59;;;;;;;4.27;3.60;;;4.70;99.90;;;;;;4976720;28;20214;-69
2023/01/17 00:26:05;;;;;;;5.13;3.37;;;4.80;99.90;;;;;;4984844;28;21800;-69
2023/01/17 01:35:35;;;;;;;5.13;3.63;;;4.50;99.90;;;;;;4943564;28;20237;-70
2023/01/17 01:38:04;;;;;;;5.27;3.87;;;4.50;99.90;;;;;;4977571;28;20199;-69
2023/01/17 01:40:31;;;;;;;5.73;3.33;;;4.50;99.90;;;;;;4977885;28;20204;-69
2023/01/17 01:43:01;;;;;;;4.87;3.63;;;4.40;99.90;;;;;;4983371;28;20199;-69
2023/01/17 01:45:30;;;;;;;5.70;3.87;;;4.40;99.90;;;;;;4979262;28;20243;-70
2023/01/17 01:48:02;;;;;;;4.37;3.53;;;4.40;99.90;;;;;;4972008;28;21757;-69
2023/01/17 01:50:30;;;;;;;4.70;3.30;;;4.40;99.90;;;;;;4947457;28;20210;-69
2023/01/17 01:53:00;;;;;;;4.83;3.30;;;4.40;99.90;;;;;;4982949;28;20205;-69
2023/01/17 01:55:32;;;;;;;4.33;3.27;;;4.40;99.90;;;;;;4970171;28;20244;-69
2023/01/17 01:58:04;;;;;;;6.07;4.30;;;4.30;99.90;;;;;;4982671;28;20203;-69
2023/01/17 02:00:34;;;;;;;4.30;3.10;;;4.30;99.90;;;;;;4983396;28;20680;-69
2023/01/17 02:03:06;;;;;;;5.00;3.77;;;4.30;99.90;;;;;;4976601;28;20214;-69
2023/01/17 02:05:35;;;;;;;4.83;3.67;;;4.50;99.90;;;;;;4956533;28;21724;-69
2023/01/17 02:08:03;;;;;;;4.47;3.83;;;4.30;99.90;;;;;;4972557;28;20207;-69
2023/01/17 02:10:33;;;;;;;6.07;4.30;;;4.30;99.90;;;;;;4974095;28;20584;-70
2023/01/17 02:13:02;;;;;;;6.00;4.40;;;4.30;99.90;;;;;;4984505;28;20231;-69
2023/01/17 02:15:32;;;;;;;6.87;4.37;;;4.40;99.90;;;;;;4979890;28;20211;-69
2023/01/17 02:18:08;;;;;;;6.63;4.70;;;4.40;99.90;;;;;;4969789;28;20576;-69
2023/01/17 02:20:57;;;;;;;6.47;4.50;;;4.40;99.90;;;;;;4957078;28;20674;-69
2023/01/17 02:23:58;;;;;;;6.77;4.40;;;4.40;99.90;;;;;;4974787;28;20215;-69
2023/01/17 02:26:55;;;;;;;7.10;4.57;;;4.30;99.90;;;;;;4967787;28;20203;-69
2023/01/17 02:30:03;;;;;;;6.47;4.63;;;4.30;99.90;;;;;;4973958;28;20242;-69
2023/01/17 02:32:49;;;;;;;5.37;3.70;;;4.30;99.90;;;;;;4981864;28;20705;-69
2023/01/17 02:35:22;;;;;;;8.57;3.93;;;4.30;99.90;;;;;;4979688;28;20209;-69
2023/01/17 02:37:57;;;;;;;6.00;3.90;;;4.30;99.90;;;;;;4950508;28;20274;-69
2023/01/17 02:40:29;;;;;;;5.17;4.03;;;4.30;99.90;;;;;;4966657;28;20240;-70
2023/01/17 02:43:01;;;;;;;5.77;3.70;;;4.40;99.90;;;;;;4970440;28;20211;-69
2023/01/17 02:45:28;;;;;;;4.67;3.47;;;4.40;99.90;;;;;;4979953;28;21173;-70
2023/01/17 02:47:57;;;;;;;5.97;3.67;;;4.40;99.90;;;;;;4984886;28;20210;-69
2023/01/17 02:50:28;;;;;;;4.27;3.00;;;4.40;99.90;;;;;;4980293;28;20202;-69
2023/01/17 02:53:12;;;;;;;4.30;3.00;;;4.40;99.90;;;;;;4951385;28;20610;-69
2023/01/17 02:55:52;;;;;;;3.20;2.90;;;4.40;99.90;;;;;;5014222;28;20223;-69
2023/01/17 02:58:34;;;;;;;2.80;2.23;;;4.40;99.90;;;;;;5089491;28;20196;-69
2023/01/17 03:01:11;;;;;;;2.97;2.60;;;4.40;99.90;;;;;;5087937;28;20534;-69
2023/01/17 03:03:47;;;;;;;2.53;1.97;;;4.40;99.90;;;;;;5082021;28;20224;-69
2023/01/17 03:06:17;;;;;;;2.00;1.80;;;4.40;99.90;;;;;;5088513;28;20234;-69
2023/01/17 03:08:47;;;;;;;2.37;1.70;;;4.40;99.90;;;;;;5053549;28;20196;-69
2023/01/17 03:11:15;;;;;;;1.10;1.00;;;4.40;99.90;;;;;;5075243;28;20199;-69
2023/01/17 03:13:43;;;;;;;0.90;0.90;;;4.40;99.90;;;;;;5083249;28;20207;-69
2023/01/17 03:16:14;;;;;;;1.00;0.90;;;4.40;99.90;;;;;;5090176;28;20664;-69
2023/01/17 03:18:42;;;;;;;2.03;1.03;;;4.30;99.90;;;;;;5081875;27;20196;-69
2023/01/17 03:21:09;;;;;;;0.87;0.80;;;4.30;99.90;;;;;;5087662;28;20204;-69
2023/01/17 03:23:36;;;;;;;1.00;0.70;;;4.40;99.90;;;;;;5058783;27;20203;-69
2023/01/17 03:26:03;;;;;;;1.60;0.70;;;4.30;99.90;;;;;;5090209;28;20216;-69
2023/01/17 03:28:30;;;;;;;0.70;0.70;;;4.30;99.90;;;;;;5065976;28;20597;-69
2023/01/17 03:30:57;;;;;;;0.50;0.50;;;4.30;99.90;;;;;;5086511;28;20200;-69
2023/01/17 03:33:24;;;;;;;0.30;0.30;;;4.20;99.90;;;;;;5088557;28;20628;-69
2023/01/17 03:35:53;;;;;;;0.27;0.27;;;4.10;99.90;;;;;;5085295;28;20204;-69
2023/01/17 03:38:20;;;;;;;0.30;0.30;;;4.00;99.90;;;;;;5058851;28;20588;-69
2023/01/17 03:40:46;;;;;;;1.80;0.70;;;4.00;99.90;;;;;;5085920;28;20209;-69
2023/01/17 03:43:13;;;;;;;1.33;0.50;;;4.00;99.90;;;;;;5069842;28;20200;-69
2023/01/17 03:45:40;;;;;;;0.87;0.50;;;4.10;99.90;;;;;;5088734;27;20806;-69
2023/01/17 03:48:07;;;;;;;0.23;0.20;;;4.10;99.90;;;;;;5074212;28;20202;-69
2023/01/17 03:50:34;;;;;;;0.87;0.50;;;4.00;99.90;;;;;;5085811;28;20215;-69
2023/01/17 03:53:02;;;;;;;0.37;0.37;;;4.00;99.90;;;;;;5089825;27;20208;-69
2023/01/17 03:55:29;;;;;;;0.20;0.20;;;4.00;99.90;;;;;;5061469;27;20238;-69
2023/01/17 03:57:56;;;;;;;0.43;0.20;;;4.00;99.90;;;;;;5067535;28;20215;-69
2023/01/17 04:00:23;;;;;;;3.50;0.43;;;3.90;99.90;;;;;;5088187;28;21839;-69
2023/01/17 04:02:50;;;;;;;0.77;0.77;;;3.80;99.90;;;;;;5085704;28;21602;-69
2023/01/17 04:05:17;;;;;;;2.00;0.60;;;3.80;99.90;;;;;;5086951;28;20607;-69
2023/01/17 04:07:44;;;;;;;1.53;0.50;;;3.80;99.90;;;;;;5086126;28;20238;-69
2023/01/17 04:10:12;;;;;;;0.67;0.37;;;3.80;99.90;;;;;;5064379;28;20199;-70
2023/01/17 04:12:39;;;;;;;1.00;0.30;;;3.80;99.90;;;;;;5079695;28;20217;-69
2023/01/17 04:15:06;;;;;;;3.40;0.43;;;3.80;99.90;;;;;;5067143;27;20207;-69
2023/01/17 04:17:33;;;;;;;0.27;0.20;;;3.80;99.90;;;;;;5071704;28;20206;-69
2023/01/17 04:20:00;;;;;;;3.40;0.70;;;3.80;99.90;;;;;;5080193;27;20669;-71
2023/01/17 04:22:27;;;;;;;0.67;0.27;;;3.80;99.90;;;;;;5083220;28;20751;-69
2023/01/17 04:24:54;;;;;;;1.90;0.40;;;3.80;99.90;;;;;;5060280;28;21011;-69
2023/01/17 04:27:22;;;;;;;3.33;0.67;;;3.80;99.90;;;;;;5088383;27;20774;-70
2023/01/17 04:29:49;;;;;;;3.57;0.73;;;3.80;99.90;;;;;;5070017;28;20231;-70
2023/01/17 04:32:15;;;;;;;2.13;0.50;;;3.70;99.90;;;;;;5066560;27;20219;-69
2023/01/17 04:34:43;;;;;;;2.93;0.60;;;3.80;99.90;;;;;;5085882;28;20651;-70
2023/01/17 04:37:09;;;;;;;0.90;0.40;;;3.80;99.90;;;;;;5083879;28;20276;-72
2023/01/17 04:39:36;;;;;;;3.23;0.77;;;3.70;99.90;;;;;;5073888;28;20209;-70
2023/01/17 04:42:03;;;;;;;1.30;0.53;;;3.70;99.90;;;;;;5056856;27;20234;-69
2023/01/17 04:44:31;;;;;;;3.60;0.93;;;3.70;99.90;;;;;;5083312;27;20203;-69
2023/01/17 04:47:00;;;;;;;2.20;0.67;;;3.70;99.90;;;;;;5056842;28;20238;-69
2023/01/17 04:49:27;;;;;;;1.13;0.40;;;3.60;99.90;;;;;;5083176;28;20199;-69
2023/01/17 04:51:54;;;;;;;5.63;0.87;;;3.70;99.90;;;;;;5079492;27;20197;-69
2023/01/17 04:54:20;;;;;;;5.63;0.80;;;3.70;99.90;;;;;;5084913;22;20227;-69
2023/01/17 04:56:47;;;;;;;2.27;0.67;;;3.70;99.90;;;;;;5028804;28;20233;-68
2023/01/17 04:59:14;;;;;;;1.93;1.00;;;3.80;99.90;;;;;;5072152;28;20296;-69
2023/01/17 05:01:43;;;;;;;2.40;0.60;;;3.80;99.90;;;;;;5045166;28;20235;-69
2023/01/17 05:04:10;;;;;;;4.37;0.67;;;3.80;99.90;;;;;;5061884;27;20199;-69
2023/01/17 05:06:36;;;;;;;1.10;0.53;;;3.80;99.90;;;;;;5083682;28;20236;-69
2023/01/17 05:09:03;;;;;;;5.27;1.13;;;3.80;99.90;;;;;;5065820;27;20208;-69
2023/01/17 05:11:30;;;;;;;1.07;0.37;;;3.80;99.90;;;;;;5079833;27;20200;-69
2023/01/17 05:13:57;;;;;;;4.93;1.07;;;3.80;99.90;;;;;;5043437;28;20692;-69
2023/01/17 05:16:25;;;;;;;4.07;1.30;;;3.80;99.90;;;;;;5068448;28;20210;-69
2023/01/17 05:18:54;;;;;;;6.87;1.00;;;3.80;99.90;;;;;;5083638;28;20221;-69
2023/01/17 05:21:21;;;;;;;4.07;0.73;;;3.70;99.90;;;;;;5066984;28;20203;-69
2023/01/17 05:23:49;;;;;;;2.17;0.70;;;3.60;99.90;;;;;;5067358;28;20224;-69
2023/01/17 05:26:15;;;;;;;2.20;0.70;;;3.60;99.90;;;;;;5059790;28;20232;-69
2023/01/17 05:28:42;;;;;;;1.43;0.47;;;3.60;99.90;;;;;;5049009;28;20211;-69
2023/01/17 05:31:09;;;;;;;2.87;0.60;;;3.60;99.90;;;;;;5076501;28;20199;-69
2023/01/17 05:33:36;;;;;;;3.57;0.63;;;3.60;99.90;;;;;;5059549;28;20199;-69
2023/01/17 05:36:04;;;;;;;1.10;0.60;;;3.60;99.90;;;;;;5070262;28;20202;-69
2023/01/17 05:38:31;;;;;;;5.20;0.67;;;3.70;99.90;;;;;;5045465;28;20219;-69
2023/01/17 05:40:59;;;;;;;3.77;0.83;;;3.70;99.90;;;;;;5068836;28;20223;-69
2023/01/17 05:43:26;;;;;;;6.43;1.23;;;3.60;99.90;;;;;;5019683;28;20203;-69
2023/01/17 05:45:53;;;;;;;4.47;0.57;;;3.70;99.90;;;;;;4993863;28;20253;-69
2023/01/17 05:48:20;;;;;;;5.37;0.90;;;3.70;99.90;;;;;;4968786;28;21143;-69
2023/01/17 05:50:47;;;;;;;4.27;0.97;;;3.70;99.90;;;;;;4987379;28;20299;-69
2023/01/17 05:53:16;;;;;;;6.43;0.90;;;3.70;99.90;;;;;;4996117;28;20198;-69
2023/01/17 05:55:43;;;;;;;6.87;0.90;;;3.70;99.90;;;;;;4979752;28;21059;-69
2023/01/17 05:58:15;;;;;;;8.37;1.37;;;3.70;99.90;;;;;;4988702;28;20222;-69
2023/01/17 06:00:42;;;;;;;4.23;0.60;;;3.70;99.90;;;;;;4967879;28;20206;-69
2023/01/17 06:03:10;;;;;;;3.03;0.57;;;3.60;99.90;;;;;;4997788;28;20201;-70
2023/01/17 06:05:37;;;;;;;3.33;0.70;;;3.40;99.90;;;;;;4974289;28;21153;-70
2023/01/17 06:08:04;;;;;;;1.80;0.97;;;3.40;99.90;;;;;;4991994;28;20456;-70
2023/01/17 06:10:33;;;;;;;3.73;1.27;;;3.30;99.90;;;;;;4982800;28;20202;-69
2023/01/17 06:13:05;;;;;;;1.30;0.80;;;3.20;99.90;;;;;;4974948;28;20225;-69
2023/01/17 06:15:32;;;;;;;2.13;0.80;;;3.20;99.90;;;;;;4948467;28;20226;-69
2023/01/17 06:18:03;;;;;;;6.90;0.83;;;3.30;99.90;;;;;;4983050;28;20217;-69
2023/01/17 06:20:29;;;;;;;1.63;0.53;;;3.20;99.90;;;;;;4986506;28;20594;-68
2023/01/17 06:22:56;;;;;;;6.63;1.07;;;3.30;99.90;;;;;;5004673;28;20206;-69
2023/01/17 06:25:23;;;;;;;5.27;0.80;;;3.40;99.90;;;;;;4990717;28;20957;-69
2023/01/17 06:27:53;;;;;;;4.37;0.97;;;3.40;99.90;;;;;;4999210;28;20295;-69
2023/01/17 06:30:20;;;;;;;4.10;1.03;;;3.40;99.90;;;;;;4984810;28;20890;-69
2023/01/17 06:32:53;;;;;;;9.30;1.10;;;3.50;99.90;;;;;;4978972;28;20230;-69
2023/01/17 06:35:20;;;;;;;0.63;0.57;;;3.50;99.90;;;;;;4992211;28;20676;-69
2023/01/17 06:37:50;;;;;;;1.17;0.57;;;3.50;99.90;;;;;;5001405;28;20202;-69
2023/01/17 06:40:18;;;;;;;1.67;0.53;;;3.40;99.90;;;;;;5007250;28;20198;-69
2023/01/17 06:42:44;;;;;;;4.77;0.90;;;3.50;99.90;;;;;;4991481;27;20715;-69
2023/01/17 06:45:13;;;;;;;2.27;0.57;;;3.50;99.90;;;;;;5004813;28;20214;-69
2023/01/17 06:47:40;;;;;;;4.00;1.20;;;3.50;99.90;;;;;;4967830;28;20234;-69
2023/01/17 06:50:11;;;;;;;1.90;0.37;;;3.50;99.90;;;;;;5002661;28;20223;-69
2023/01/17 06:52:37;;;;;;;7.60;0.57;;;3.40;99.90;;;;;;4985381;28;20214;-69
2023/01/17 06:55:06;;;;;;;3.93;0.93;;;3.50;99.90;;;;;;5002278;28;20253;-69
2023/01/17 06:57:33;;;;;;;4.77;1.03;;;3.40;99.90;;;;;;4991490;28;20297;-69
2023/01/17 07:00:00;;;;;;;3.07;1.03;;;3.40;99.90;;;;;;5005717;28;20277;-69
2023/01/17 07:02:28;;;;;;;3.77;0.73;;;3.40;99.90;;;;;;4961143;28;20209;-69
2023/01/17 07:04:55;;;;;;;2.67;0.70;;;3.50;99.90;;;;;;4998049;28;20225;-69
2023/01/17 07:07:22;;;;;;;5.50;0.83;;;3.50;99.90;;;;;;4967392;28;20226;-69
2023/01/17 07:09:48;;;;;;;6.27;0.80;;;3.40;99.90;;;;;;4992316;28;20211;-69
2023/01/17 07:12:15;;;;;;;0.83;0.47;;;3.30;99.90;;;;;;4986914;27;20203;-69
2023/01/17 07:14:42;;;;;;;6.43;1.17;;;3.20;99.90;;;;;;4989246;28;20684;-69
2023/01/17 07:17:09;;;;;;;2.87;0.83;;;3.20;99.90;;;;;;5001031;28;20792;-69
2023/01/17 07:19:37;;;;;;;1.77;0.40;;;3.10;99.90;;;;;;4974044;28;20821;-69
2023/01/17 07:22:03;;;;;;;5.93;0.63;;;3.10;99.90;;;;;;4991782;27;20972;-69
2023/01/17 07:24:31;;;;;;;4.53;0.57;;;3.00;99.90;;;;;;4975860;27;20233;-69
2023/01/17 07:26:58;;;;;;;3.23;0.87;;;3.00;99.90;;;;;;4980166;28;20235;-69
2023/01/17 07:29:25;;;;;;;6.20;0.83;;;3.00;99.90;;;;;;4985199;28;20202;-69
2023/01/17 07:31:51;;;;;;;5.60;0.77;;;3.00;99.90;;;;;;4992744;28;20210;-69
2023/01/17 07:34:18;;;;;;;0.30;0.27;;;2.90;99.90;;;;;;4970154;28;20217;-69
2023/01/17 07:36:48;;;;;;;5.20;0.70;;;2.90;99.90;;;;;;4990922;28;20308;-69
2023/01/17 07:39:15;;;;;;;3.47;0.40;;;2.90;99.90;;;;;;4982887;28;20231;-69
2023/01/17 07:41:42;;;;;;;3.83;1.00;;;3.00;99.90;;;;;;5010221;27;20194;-69
2023/01/17 07:44:12;;;;;;;3.57;0.90;;;2.90;99.90;;;;;;4995852;28;20203;-69
2023/01/17 07:46:38;;;;;;;6.03;0.93;;;3.40;99.90;;;;;;4981396;28;20837;-69
2023/01/17 07:49:05;;;;;;;6.80;0.97;;;3.00;99.90;;;;;;4999468;28;20601;-68
2023/01/17 07:51:32;;;;;;;3.30;1.03;;;3.00;99.90;;;;;;4976621;28;20786;-69
2023/01/17 07:54:00;;;;;;;4.33;0.70;;;3.00;99.90;;;;;;4967253;28;21041;-69
2023/01/17 07:56:27;;;;;;;2.70;0.63;;;3.00;99.90;;;;;;4995217;28;20227;-69
2023/01/17 07:58:54;;;;;;;3.07;0.80;;;3.00;99.90;;;;;;4990503;28;20205;-69
2023/01/17 08:01:21;;;;;;;3.67;0.77;;;3.00;99.90;;;;;;4984745;28;21628;-69
2023/01/17 08:03:53;;;;;;;6.90;1.00;;;3.00;99.90;;;;;;5005333;28;20214;-69
2023/01/17 08:06:22;;;;;;;8.47;1.03;;;3.00;99.90;;;;;;4969531;28;20227;-69
2023/01/17 08:08:49;;;;;;;3.73;0.97;;;3.10;99.90;;;;;;4985451;28;20233;-69
2023/01/17 08:11:17;;;;;;;3.90;1.00;;;3.00;99.90;;;;;;4984491;27;20234;-69
2023/01/17 08:13:44;;;;;;;4.07;0.90;;;3.00;99.90;;;;;;4997300;28;20710;-69
2023/01/17 08:16:11;;;;;;;2.33;0.50;;;3.10;99.90;;;;;;4984165;28;20230;-69
2023/01/17 08:18:38;;;;;;;1.57;0.63;;;2.90;99.90;;;;;;4982143;28;20207;-69
2023/01/17 08:21:11;;;;;;;1.90;0.63;;;2.90;99.90;;;;;;4951708;28;20214;-69
2023/01/17 08:23:38;;;;;;;5.00;0.90;;;2.90;99.90;;;;;;4997537;27;20206;-69
2023/01/17 08:26:05;;;;;;;9.33;1.00;;;2.80;99.90;;;;;;4968667;28;20223;-69
2023/01/17 08:28:33;;;;;;;6.03;1.27;;;2.90;99.90;;;;;;4986640;28;20703;-69
2023/01/17 08:31:06;;;;;;;13.50;1.27;;;2.90;99.90;;;;;;4984335;28;20206;-69
2023/01/17 08:33:33;;;;;;;4.23;0.83;;;2.90;99.90;;;;;;4988613;27;22466;-69
2023/01/17 08:36:00;;;;;;;5.40;1.23;;;2.90;99.90;;;;;;4970700;28;20217;-68
2023/01/17 08:38:26;;;;;;;3.90;1.00;;;2.70;99.90;;;;;;4982264;28;20202;-69
2023/01/17 08:40:53;;;;;;;3.60;1.00;;;2.90;99.90;;;;;;4989102;28;20213;-69
2023/01/17 08:43:20;;;;;;;2.40;0.97;;;2.90;99.90;;;;;;4990129;28;20206;-69
2023/01/17 08:45:49;;;;;;;3.37;0.80;;;2.80;99.90;;;;;;4986792;28;20206;-69
2023/01/17 08:48:16;;;;;;;7.43;1.10;;;2.80;99.90;;;;;;4982673;28;20239;-69
2023/01/17 08:50:43;;;;;;;1.63;0.90;;;2.90;99.90;;;;;;4969713;28;20203;-69
2023/01/17 08:53:10;;;;;;;4.27;0.80;;;2.80;99.90;;;;;;5004433;27;20194;-68
2023/01/17 08:55:39;;;;;;;3.37;0.80;;;2.80;99.90;;;;;;4985660;27;20230;-69
2023/01/17 08:58:06;;;;;;;3.73;0.87;;;2.80;99.90;;;;;;4979555;28;20203;-69
2023/01/17 09:00:34;;;;;;;4.57;0.97;;;2.90;99.90;;;;;;4997552;28;20306;-69
2023/01/17 09:03:02;;;;;;;6.10;1.23;;;2.80;99.90;;;;;;4970781;28;20202;-69
2023/01/17 09:05:29;;;;;;;1.33;0.37;;;2.90;99.90;;;;;;4996226;28;20210;-69
2023/01/17 09:07:56;;;;;;;5.53;0.73;;;2.90;99.90;;;;;;4966200;28;20323;-69
2023/01/17 09:10:23;;;;;;;1.13;0.73;;;2.90;99.90;;;;;;4985285;28;20212;-69
2023/01/17 09:12:50;;;;;;;9.63;1.07;;;2.90;99.90;;;;;;4971147;28;20245;-69
2023/01/17 09:15:19;;;;;;;7.20;0.93;;;2.90;99.90;;;;;;4992076;28;20207;-69
2023/01/17 09:17:45;;;;;;;0.80;0.63;;;2.80;99.90;;;;;;4974068;28;20317;-69
2023/01/17 09:20:14;;;;;;;5.87;0.90;;;2.80;99.90;;;;;;4989104;27;20610;-69
2023/01/17 09:22:41;;;;;;;7.03;0.80;;;2.80;99.90;;;;;;4968059;28;20210;-69
2023/01/17 09:25:08;;;;;;;1.50;0.63;;;2.90;99.90;;;;;;4999568;28;20190;-69
2023/01/17 09:27:40;;;;;;;12.73;2.20;;;2.90;99.90;;;;;;4973158;27;20684;-69
2023/01/17 09:30:08;;;;;;;14.53;4.37;;;2.90;99.90;;;;;;4997124;28;20580;-69
2023/01/17 09:32:35;;;;;;;4.00;1.93;;;3.00;99.90;;;;;;4991953;28;20206;-68
2023/01/17 09:35:04;;;;;;;3.07;1.57;;;3.00;99.90;;;;;;4966074;28;20217;-68
2023/01/17 09:37:32;;;;;;;4.30;1.37;;;3.00;99.90;;;;;;4970984;28;20362;-69
2023/01/17 09:39:58;;;;;;;5.30;1.43;;;3.00;99.90;;;;;;4997504;28;20290;-68
2023/01/17 09:42:32;;;;;;;4.47;1.23;;;3.10;99.90;;;;;;4970379;28;20797;-69
2023/01/17 09:44:59;;;;;;;7.70;1.43;;;3.10;99.90;;;;;;4994769;28;20196;-69
2023/01/17 09:47:34;;;;;;;5.73;1.20;;;3.10;99.90;;;;;;4983512;28;21026;-69
2023/01/17 09:50:11;;;;;;;6.40;0.97;;;3.10;99.90;;;;;;4978097;28;20216;-69
2023/01/17 09:52:39;;;;;;;1.27;0.80;;;3.20;99.90;;;;;;4991981;28;20252;-69
2023/01/17 09:55:12;;;;;;;3.10;0.90;;;3.20;99.90;;;;;;4965228;28;20240;-69
2023/01/17 09:57:49;;;;;;;5.60;0.73;;;3.30;99.90;;;;;;4988082;28;20205;-69
2023/01/17 10:00:31;;;;;;;2.23;0.77;;;3.40;99.90;;;;;;4986843;28;20362;-69
2023/01/17 10:03:20;;;;;;;1.73;0.80;;;3.40;99.90;;;;;;4969114;28;20215;-69
2023/01/17 10:05:59;;;;;;;3.00;0.60;;;3.40;99.90;;;;;;4971143;28;20238;-68
2023/01/17 10:08:49;;;;;;;3.73;0.87;;;3.40;99.90;;;;;;4989951;28;20733;-69
2023/01/17 10:11:44;;;;;;;1.23;0.73;;;3.40;99.90;;;;;;4970267;28;20309;-69
2023/01/17 10:14:26;;;;;;;2.27;0.67;;;3.40;99.90;;;;;;4959566;28;20229;-69
2023/01/17 10:16:59;;;;;;;1.10;0.53;;;3.40;99.90;;;;;;4977924;28;20224;-69
2023/01/17 10:19:43;;;;;;;2.17;0.80;;;3.40;99.90;;;;;;4966821;28;20251;-69
2023/01/17 10:22:31;;;;;;;2.13;0.60;;;3.50;99.90;;;;;;4973485;28;20565;-69
2023/01/17 10:25:15;;;;;;;1.93;0.50;;;3.40;99.90;;;;;;4959453;28;20218;-69
2023/01/17 10:27:48;;;;;;;1.90;0.70;;;3.40;99.90;;;;;;4971609;28;20231;-68
2023/01/17 10:30:21;;;;;;;7.37;1.80;;;3.50;99.90;;;;;;4965956;28;20226;-69
2023/01/17 10:32:49;;;;;;;4.23;1.30;;;3.50;99.90;;;;;;4985714;28;20287;-68
2023/01/17 10:35:23;;;;;;;4.30;1.80;;;3.50;99.90;;;;;;4956259;28;20232;-69
2023/01/17 10:37:55;;;;;;;3.17;1.20;;;3.50;99.90;;;;;;4967442;28;20286;-68
2023/01/17 10:40:30;;;;;;;1.93;1.20;;;3.60;99.90;;;;;;4978962;28;20223;-69
2023/01/17 10:43:02;;;;;;;1.67;0.97;;;3.50;99.90;;;;;;4945766;28;22035;-69
2023/01/17 10:45:31;;;;;;;1.97;0.90;;;3.50;99.90;;;;;;4978221;28;20262;-69
2023/01/17 10:48:04;;;;;;;1.50;0.63;;;3.50;99.90;;;;;;4991347;28;20245;-69
2023/01/17 10:50:40;;;;;;;2.83;1.03;;;3.50;99.90;;;;;;4975987;28;20876;-69
2023/01/17 10:53:14;;;;;;;1.30;0.60;;;3.60;99.90;;;;;;4978712;28;20207;-68
2023/01/17 10:55:48;;;;;;;3.93;0.57;;;3.60;99.90;;;;;;5001263;28;20194;-69
2023/01/17 10:58:15;;;;;;;3.43;0.90;;;3.60;99.90;;;;;;4971651;28;20202;-69
2023/01/17 11:00:49;;;;;;;3.00;0.93;;;3.60;99.90;;;;;;5001893;28;20206;-69
2023/01/17 11:03:19;;;;;;;9.93;1.67;;;3.60;99.90;;;;;;4997096;28;20541;-68
2023/01/17 11:06:08;;;;;;;4.50;0.90;;;3.60;99.90;;;;;;4988540;28;20662;-69
2023/01/17 11:08:50;;;;;;;0.67;0.63;;;3.60;99.90;;;;;;4988726;28;21457;-69
2023/01/17 11:11:20;;;;;;;5.60;1.00;;;3.60;99.90;;;;;;5007005;27;20207;-69
2023/01/17 11:13:49;;;;;;;0.50;0.50;;;3.60;99.90;;;;;;4978041;27;20207;-68
2023/01/17 11:16:19;;;;;;;4.07;0.90;;;3.70;99.90;;;;;;4983412;28;20203;-69
2023/01/17 11:19:03;;;;;;;3.60;1.03;;;3.70;99.90;;;;;;5002597;28;20572;-70
2023/01/17 11:21:30;;;;;;;3.97;1.07;;;3.70;99.90;;;;;;4996908;28;20210;-69
2023/01/17 11:23:57;;;;;;;2.30;1.13;;;3.80;99.90;;;;;;4984859;28;20207;-69
2023/01/17 11:26:28;;;;;;;2.40;0.70;;;3.80;99.90;;;;;;5002805;28;20199;-69
2023/01/17 11:29:14;;;;;;;6.63;0.80;;;3.80;99.90;;;;;;4976399;28;20719;-68
2023/01/17 11:31:41;;;;;;;6.67;1.33;;;3.80;99.90;;;;;;4984874;27;20210;-69
2023/01/17 11:34:15;;;;;;;1.53;0.80;;;3.80;99.90;;;;;;4993966;28;20202;-68
2023/01/17 11:36:42;;;;;;;5.37;1.13;;;3.80;99.90;;;;;;4992112;28;20206;-69
2023/01/17 11:39:26;;;;;;;2.83;1.00;;;4.00;99.90;;;;;;4993353;27;20203;-69
2023/01/17 11:41:55;;;;;;;2.77;1.20;;;3.80;99.90;;;;;;5002538;27;20198;-69
2023/01/17 11:44:24;;;;;;;3.30;0.80;;;3.90;99.90;;;;;;4972948;28;20288;-69
2023/01/17 11:47:14;;;;;;;3.00;0.97;;;3.90;99.90;;;;;;4984889;28;20277;-68
2023/01/17 11:49:43;;;;;;;1.03;0.77;;;3.90;99.90;;;;;;4985038;28;20639;-69
2023/01/17 11:52:10;;;;;;;2.13;0.80;;;3.90;99.90;;;;;;4969188;28;20203;-69
2023/01/17 11:54:41;;;;;;;4.83;1.10;;;3.90;99.90;;;;;;4983595;28;20241;-69
2023/01/17 11:57:20;;;;;;;4.90;1.10;;;4.00;99.90;;;;;;4983365;28;20218;-68
2023/01/17 11:59:48;;;;;;;3.20;1.10;;;3.90;99.90;;;;;;4971241;28;20620;-69
2023/01/17 12:02:45;;;;;;;1.83;1.10;;;4.00;99.90;;;;;;4979940;28;20233;-69
2023/01/17 12:05:30;;;;;;;6.93;1.10;;;4.00;99.90;;;;;;4947597;28;20210;-69
2023/01/17 12:08:09;;;;;;;0.50;0.50;;;4.00;99.90;;;;;;4987094;28;20237;-69
2023/01/17 12:10:46;;;;;;;0.93;0.73;;;4.10;99.90;;;;;;4983568;28;23381;-69
2023/01/17 12:16:27;;;;;;;3.80;1.10;;;4.20;99.90;;;;;;5004032;28;20213;-69
2023/01/17 12:18:58;;;;;;;0.77;0.77;;;4.30;99.90;;;;;;4981129;28;20705;-69
2023/01/17 12:21:35;;;;;;;5.97;1.07;;;4.20;99.90;;;;;;4989095;28;20206;-69
2023/01/17 12:24:18;;;;;;;2.43;0.73;;;4.20;99.90;;;;;;4986548;28;20202;-68
2023/01/17 12:26:54;;;;;;;2.40;0.70;;;4.20;99.90;;;;;;4984763;27;20203;-69
2023/01/17 12:29:41;;;;;;;2.40;0.70;;;4.20;99.90;;;;;;4957244;27;20972;-69
2023/01/17 12:32:28;;;;;;;7.37;0.80;;;4.20;99.90;;;;;;4998314;27;20231;-69
2023/01/17 12:35:00;;;;;;;0.60;0.57;;;4.20;99.90;;;;;;4981695;28;20202;-69
2023/01/17 12:37:33;;;;;;;1.00;0.80;;;4.20;99.90;;;;;;5001052;27;20211;-68
2023/01/17 12:40:07;;;;;;;1.17;0.60;;;4.20;99.90;;;;;;4984967;28;20290;-68
2023/01/17 12:42:39;;;;;;;0.50;0.50;;;4.10;99.90;;;;;;4975090;28;20211;-68
2023/01/17 12:45:13;;;;;;;1.57;0.70;;;4.00;99.90;;;;;;4968461;28;20213;-69
2023/01/17 12:47:44;;;;;;;1.10;0.70;;;4.00;99.90;;;;;;4995287;27;20222;-69
2023/01/17 12:50:21;;;;;;;3.30;0.50;;;4.00;99.90;;;;;;4985058;28;20213;-68
2023/01/17 12:52:53;;;;;;;1.90;0.50;;;4.00;99.90;;;;;;5004622;28;20952;-68
2023/01/17 12:55:34;;;;;;;0.40;0.40;;;4.00;99.90;;;;;;4984722;28;20754;-69
2023/01/17 12:58:05;;;;;;;4.20;0.87;;;4.00;99.90;;;;;;4983232;28;21019;-68
2023/01/17 13:00:37;;;;;;;1.03;0.50;;;4.10;99.90;;;;;;4958494;27;21011;-69
2023/01/17 13:03:13;;;;;;;3.63;0.83;;;4.10;99.90;;;;;;4952216;28;20226;-69
2023/01/17 13:05:43;;;;;;;2.17;1.00;;;4.10;99.90;;;;;;4957446;28;20801;-69
2023/01/17 13:08:21;;;;;;;1.43;0.50;;;4.10;99.90;;;;;;4991134;28;20225;-68
2023/01/17 13:10:53;;;;;;;4.60;0.60;;;4.20;99.90;;;;;;4975530;28;20209;-68
2023/01/17 13:13:22;;;;;;;3.73;0.80;;;4.20;99.90;;;;;;4970403;28;20321;-68
2023/01/17 13:15:54;;;;;;;1.03;0.60;;;4.20;99.90;;;;;;4979511;28;20456;-68
2023/01/17 13:18:24;;;;;;;0.60;0.60;;;4.20;99.90;;;;;;4970754;28;20213;-69
2023/01/17 13:21:22;;;;;;;3.20;0.77;;;4.10;99.90;;;;;;4963374;28;20600;-69
2023/01/17 13:24:06;;;;;;;3.33;0.80;;;4.20;99.90;;;;;;4995581;28;20222;-68
2023/01/17 13:26:44;;;;;;;1.50;0.70;;;4.20;99.90;;;;;;4994272;27;20213;-69
2023/01/17 13:29:21;;;;;;;8.17;1.70;;;4.20;99.90;;;;;;4992168;28;20745;-69
2023/01/17 13:32:03;;;;;;;4.53;0.70;;;4.20;99.90;;;;;;5000813;28;20217;-68
2023/01/17 13:34:54;;;;;;;2.23;0.90;;;4.20;99.90;;;;;;4969026;28;20202;-69
2023/01/17 13:37:48;;;;;;;4.57;1.30;;;4.20;99.90;;;;;;4987840;28;20226;-68
2023/01/17 13:40:39;;;;;;;1.17;1.00;;;4.20;99.90;;;;;;4991569;28;20210;-68
2023/01/17 13:43:13;;;;;;;1.17;0.93;;;4.20;99.90;;;;;;4996882;28;20577;-68
2023/01/17 13:45:40;;;;;;;5.37;1.57;;;4.20;99.90;;;;;;4983330;28;20354;-69
2023/01/17 13:48:31;;;;;;;3.37;1.43;;;4.10;99.90;;;;;;4972409;28;20237;-68
2023/01/17 13:50:59;;;;;;;2.00;1.10;;;4.20;99.90;;;;;;4962898;28;20610;-69
2023/01/17 13:53:47;;;;;;;2.53;1.20;;;4.10;99.90;;;;;;4983547;28;20232;-68
2023/01/17 13:56:25;;;;;;;4.07;1.07;;;4.10;99.90;;;;;;4963313;28;20222;-68
2023/01/17 13:58:58;;;;;;;2.07;0.90;;;4.10;99.90;;;;;;4984437;28;20317;-68
2023/01/17 14:01:49;;;;;;;4.50;1.30;;;4.10;99.90;;;;;;4943719;28;20326;-69
2023/01/17 14:04:17;;;;;;;1.73;1.00;;;4.00;99.90;;;;;;4961018;28;20237;-69
2023/01/17 14:06:47;;;;;;;2.83;1.10;;;4.00;99.90;;;;;;4963917;28;20267;-68
2023/01/17 14:09:19;;;;;;;21.43;1.37;;;4.00;99.90;;;;;;4975046;28;20267;-69
2023/01/17 14:11:58;;;;;;;2.63;1.03;;;4.00;99.90;;;;;;4981401;28;20233;-69
2023/01/17 14:14:49;;;;;;;5.50;1.50;;;4.10;99.90;;;;;;4995637;28;20206;-68
2023/01/17 14:17:57;;;;;;;2.07;1.10;;;4.10;99.90;;;;;;4984140;28;20206;-68
2023/01/17 14:21:03;;;;;;;3.00;1.43;;;4.20;99.90;;;;;;4958092;28;21024;-68
2023/01/17 14:23:50;;;;;;;1.27;1.10;;;4.20;99.90;;;;;;4964996;28;20213;-69
2023/01/17 14:26:49;;;;;;;1.90;0.80;;;4.20;99.90;;;;;;4977420;28;20233;-68
2023/01/17 14:29:50;;;;;;;2.37;1.07;;;4.20;99.90;;;;;;4993931;28;20597;-68
2023/01/17 14:32:19;;;;;;;3.13;1.50;;;4.10;99.90;;;;;;4985106;28;20259;-68
2023/01/17 14:34:49;;;;;;;1.30;1.00;;;4.10;99.90;;;;;;4992705;23;20722;-69
2023/01/17 14:37:27;;;;;;;4.07;1.57;;;4.00;99.90;;;;;;4986073;28;20211;-69
2023/01/17 14:39:54;;;;;;;2.20;1.03;;;4.00;99.90;;;;;;4995673;28;20230;-69
2023/01/17 14:42:24;;;;;;;3.77;1.30;;;4.00;99.90;;;;;;5001906;28;20226;-68